createdAt,value
2022-12-04T00:01:10.946Z,15.40
2022-12-04T00:03:37.571Z,15.00
2022-12-04T00:06:06.208Z,17.25
2022-12-04T00:08:32.611Z,15.25
2022-12-04T00:10:59.285Z,16.92
2022-12-04T00:13:26.609Z,16.98
2022-12-04T00:15:54.036Z,16.40
2022-12-04T00:18:20.525Z,16.60
2022-12-04T00:20:46.951Z,16.42
2022-12-04T00:23:14.095Z,16.23
2022-12-04T00:25:41.543Z,18.48
2022-12-04T00:28:08.750Z,16.33
2022-12-04T00:30:35.206Z,16.42
2022-12-04T00:33:01.648Z,17.20
2022-12-04T00:35:28.059Z,17.15
2022-12-04T00:37:54.440Z,17.27
2022-12-04T00:40:20.925Z,17.90
2022-12-04T00:42:47.297Z,16.25
2022-12-04T00:45:13.718Z,17.85
2022-12-04T00:47:40.201Z,16.75
2022-12-04T00:50:08.170Z,15.15
2022-12-04T00:52:34.606Z,17.27
2022-12-04T00:55:01.077Z,16.85
2022-12-04T00:57:27.587Z,16.30
2022-12-04T00:59:54.301Z,17.98
2022-12-04T01:02:20.986Z,17.33
2022-12-04T01:04:47.665Z,16.52
2022-12-04T01:07:14.159Z,17.67
2022-12-04T01:09:40.551Z,17.00
2022-12-04T01:12:07.187Z,17.70
2022-12-04T01:14:33.898Z,16.33
2022-12-04T01:17:00.668Z,17.25
2022-12-04T01:19:27.173Z,16.10
2022-12-04T01:21:53.739Z,17.00
2022-12-04T01:24:20.217Z,18.02
2022-12-04T01:26:46.685Z,18.27
2022-12-04T01:29:16.944Z,16.45
2022-12-04T01:31:43.492Z,18.48
2022-12-04T01:34:09.934Z,17.60
2022-12-04T01:36:36.487Z,17.48
2022-12-04T01:39:02.995Z,17.48
2022-12-04T01:41:30.754Z,17.90
2022-12-04T01:44:21.078Z,17.30
2022-12-04T01:46:55.924Z,17.27
2022-12-04T01:49:31.259Z,15.63
2022-12-04T01:52:02.407Z,18.67
2022-12-04T01:54:32.305Z,18.48
2022-12-04T01:57:13.381Z,16.45
2022-12-04T02:00:00.759Z,16.95
2022-12-04T02:02:35.126Z,16.58
2022-12-04T02:05:04.150Z,18.90
2022-12-04T02:07:31.013Z,18.60
2022-12-04T02:10:03.665Z,17.17
2022-12-04T02:12:47.380Z,19.20
2022-12-04T02:15:18.738Z,17.98
2022-12-04T02:17:58.183Z,19.45
2022-12-04T02:20:25.602Z,19.42
2022-12-04T02:23:29.821Z,17.60
2022-12-04T02:26:05.634Z,19.25
2022-12-04T02:28:39.329Z,20.95
2022-12-04T02:31:12.337Z,19.90
2022-12-04T02:33:47.943Z,21.58
2022-12-04T02:36:20.795Z,21.83
2022-12-04T02:39:05.432Z,21.90
2022-12-04T02:41:42.423Z,21.88
2022-12-04T02:44:20.425Z,21.17
2022-12-04T02:46:51.120Z,21.10
2022-12-04T02:49:40.754Z,20.20
2022-12-04T02:52:12.991Z,20.75
2022-12-04T02:54:45.798Z,21.13
2022-12-04T02:57:19.440Z,21.73
2022-12-04T03:02:39.526Z,20.83
2022-12-04T03:05:12.995Z,20.42
2022-12-04T03:08:02.750Z,21.23
2022-12-04T03:10:45.844Z,20.35
2022-12-04T03:13:18.950Z,20.58
2022-12-04T03:15:54.949Z,22.63
2022-12-04T03:18:30.732Z,19.98
2022-12-04T03:21:05.048Z,21.73
2022-12-04T03:23:39.847Z,20.65
2022-12-04T03:26:25.524Z,20.25
2022-12-04T03:29:06.751Z,22.27
2022-12-04T03:32:01.494Z,21.08
2022-12-04T03:34:35.359Z,22.20
2022-12-04T03:37:10.454Z,22.25
2022-12-04T03:39:55.369Z,23.60
2022-12-04T03:43:01.841Z,22.27
2022-12-04T03:45:42.122Z,21.77
2022-12-04T03:48:24.091Z,22.45
2022-12-04T03:51:00.515Z,23.95
2022-12-04T03:53:39.368Z,22.17
2022-12-04T03:56:14.240Z,23.60
2022-12-04T03:58:46.763Z,21.08
2022-12-04T04:01:15.470Z,23.35
2022-12-04T04:03:48.583Z,22.77
2022-12-04T04:06:20.646Z,23.33
2022-12-04T04:08:51.924Z,24.13
2022-12-04T04:11:24.541Z,24.25
2022-12-04T04:14:13.641Z,22.33
2022-12-04T04:17:05.203Z,22.98
2022-12-04T04:19:54.140Z,24.77
2022-12-04T04:22:43.555Z,22.20
2022-12-04T04:25:24.292Z,23.40
2022-12-04T04:27:55.089Z,25.00
2022-12-04T04:30:22.124Z,22.15
2022-12-04T04:32:51.432Z,23.60
2022-12-04T04:35:39.790Z,22.30
2022-12-04T04:38:27.662Z,23.90
2022-12-04T04:41:10.032Z,23.25
2022-12-04T04:44:05.508Z,21.80
2022-12-04T04:46:40.667Z,21.73
2022-12-04T04:49:10.999Z,24.77
2022-12-04T04:51:38.296Z,23.23
2022-12-04T04:54:08.612Z,24.30
2022-12-04T04:56:42.106Z,25.27
2022-12-04T04:59:08.718Z,23.50
2022-12-04T05:01:35.887Z,22.48
2022-12-04T05:04:05.007Z,23.27
2022-12-04T05:06:31.935Z,21.45
2022-12-04T05:08:59.115Z,23.00
2022-12-04T05:11:25.677Z,22.38
2022-12-04T05:13:52.744Z,22.83
2022-12-04T05:16:19.291Z,23.40
2022-12-04T05:19:05.748Z,21.85
2022-12-04T05:21:32.687Z,22.83
2022-12-04T05:23:59.549Z,21.70
2022-12-04T05:26:26.304Z,22.63
2022-12-04T05:28:52.720Z,22.42
2022-12-04T05:31:19.350Z,22.13
2022-12-04T05:33:45.816Z,21.05
2022-12-04T05:36:13.379Z,22.30
2022-12-04T05:38:40.329Z,23.40
2022-12-04T05:41:07.340Z,21.67
2022-12-04T05:43:34.325Z,22.55
2022-12-04T05:46:03.090Z,22.83
2022-12-04T05:48:29.736Z,21.73
2022-12-04T05:50:56.358Z,19.45
2022-12-04T05:53:23.388Z,21.75
2022-12-04T05:55:57.721Z,21.40
2022-12-04T05:58:24.857Z,23.13
2022-12-04T06:00:51.406Z,21.48
2022-12-04T06:03:18.012Z,21.83
2022-12-04T06:05:44.920Z,22.33
2022-12-04T06:08:11.704Z,22.50
2022-12-04T06:10:38.269Z,22.15
2022-12-04T06:13:06.475Z,22.30
2022-12-04T06:15:40.232Z,22.90
2022-12-04T06:18:08.253Z,19.95
2022-12-04T06:20:35.205Z,22.75
2022-12-04T06:23:01.628Z,21.75
2022-12-04T06:25:28.662Z,24.05
2022-12-04T06:27:55.087Z,21.33
2022-12-04T06:30:22.708Z,21.98
2022-12-04T06:32:49.355Z,23.10
2022-12-04T06:35:16.253Z,20.98
2022-12-04T06:37:42.666Z,21.85
2022-12-04T06:40:09.560Z,22.50
2022-12-04T06:42:36.003Z,22.52
2022-12-04T06:45:02.404Z,23.70
2022-12-04T06:47:28.846Z,22.90
2022-12-04T06:49:55.518Z,22.75
2022-12-04T06:52:22.148Z,20.67
2022-12-04T06:54:48.571Z,22.98
2022-12-04T06:57:18.262Z,24.05
2022-12-04T06:59:44.667Z,22.77
2022-12-04T07:02:11.215Z,24.02
2022-12-04T07:04:37.645Z,22.67
2022-12-04T07:07:04.055Z,23.75
2022-12-04T07:09:30.534Z,25.05
2022-12-04T07:11:57.062Z,21.75
2022-12-04T07:14:23.539Z,23.40
2022-12-04T07:16:50.047Z,22.42
2022-12-04T07:19:16.639Z,23.27
2022-12-04T07:21:43.731Z,23.33
2022-12-04T07:24:15.783Z,24.15
2022-12-04T07:26:42.713Z,23.00
2022-12-04T07:29:10.586Z,22.55
2022-12-04T07:31:37.712Z,21.63
2022-12-04T07:34:04.199Z,21.45
2022-12-04T07:36:30.772Z,22.52
2022-12-04T07:38:57.798Z,21.88
2022-12-04T07:41:24.384Z,22.80
2022-12-04T07:43:50.947Z,23.13
2022-12-04T07:46:23.601Z,22.83
2022-12-04T07:48:52.219Z,21.77
2022-12-04T07:51:21.721Z,22.23
2022-12-04T07:53:49.602Z,22.38
2022-12-04T07:56:16.768Z,23.63
2022-12-04T07:58:43.607Z,23.05
2022-12-04T08:01:21.938Z,22.38
2022-12-04T08:03:50.498Z,21.33
2022-12-04T08:06:19.036Z,24.30
2022-12-04T08:08:46.249Z,24.50
2022-12-04T08:11:15.477Z,23.15
2022-12-04T08:13:42.096Z,22.92
2022-12-04T08:16:10.381Z,23.63
2022-12-04T08:18:37.238Z,22.70
2022-12-04T08:21:12.625Z,22.83
2022-12-04T08:23:41.261Z,22.33
2022-12-04T08:26:08.588Z,24.85
2022-12-04T08:28:36.045Z,24.40
2022-12-04T08:31:08.208Z,24.55
2022-12-04T08:33:35.323Z,24.10
2022-12-04T08:36:02.281Z,24.75
2022-12-04T08:38:28.665Z,24.35
2022-12-04T08:40:58.963Z,25.05
2022-12-04T08:43:25.345Z,22.38
2022-12-04T08:46:12.343Z,22.17
2022-12-04T08:48:39.526Z,22.60
2022-12-04T08:51:08.209Z,23.75
2022-12-04T08:53:36.564Z,22.50
2022-12-04T08:56:03.990Z,21.65
2022-12-04T08:58:30.544Z,21.67
2022-12-04T09:00:57.089Z,22.52
2022-12-04T09:03:29.195Z,24.73
2022-12-04T09:08:25.636Z,23.80
2022-12-04T09:10:52.093Z,20.38
2022-12-04T09:13:18.507Z,24.95
2022-12-04T09:15:45.026Z,22.42
2022-12-04T09:18:11.820Z,22.73
2022-12-04T09:20:38.441Z,23.42
2022-12-04T09:23:05.806Z,22.25
2022-12-04T09:25:35.953Z,22.80
2022-12-04T09:28:02.380Z,24.10
2022-12-04T09:30:28.797Z,22.45
2022-12-04T09:32:55.184Z,22.73
2022-12-04T09:35:21.575Z,22.92
2022-12-04T09:37:47.963Z,21.55
2022-12-04T09:40:35.424Z,22.92
2022-12-04T09:43:20.480Z,23.23
2022-12-04T09:45:51.663Z,21.95
2022-12-04T09:48:21.441Z,23.17
2022-12-04T09:50:50.088Z,22.70
2022-12-04T09:53:30.024Z,21.98
2022-12-04T09:56:04.516Z,20.38
2022-12-04T09:58:41.029Z,22.33
2022-12-04T10:01:35.778Z,21.85
2022-12-04T10:04:06.143Z,21.00
2022-12-04T10:06:42.375Z,21.30
2022-12-04T10:09:28.334Z,21.38
2022-12-04T10:12:23.275Z,21.65
2022-12-04T10:15:25.831Z,21.17
2022-12-04T10:18:10.619Z,23.08
2022-12-04T10:20:52.837Z,23.52
2022-12-04T10:23:57.988Z,22.63
2022-12-04T10:26:30.374Z,22.00
2022-12-04T10:29:01.069Z,23.65
2022-12-04T10:31:29.586Z,22.00
2022-12-04T10:34:02.172Z,23.85
2022-12-04T10:36:32.763Z,21.27
2022-12-04T10:39:04.039Z,23.85
2022-12-04T10:42:05.351Z,21.90
2022-12-04T10:44:31.980Z,23.50
2022-12-04T10:47:01.683Z,24.33
2022-12-04T10:49:34.485Z,23.52
2022-12-04T10:52:01.495Z,22.33
2022-12-04T10:54:33.659Z,23.75
2022-12-04T10:57:04.180Z,21.42
2022-12-04T10:59:31.782Z,21.85
2022-12-04T11:02:11.146Z,22.33
2022-12-04T11:04:38.014Z,21.67
2022-12-04T11:07:21.143Z,21.30
2022-12-04T11:10:32.611Z,22.48
2022-12-04T11:13:14.099Z,23.33
2022-12-04T11:15:52.065Z,21.75
2022-12-04T11:18:28.778Z,23.70
2022-12-04T11:21:04.486Z,21.60
2022-12-04T11:23:43.553Z,24.08
2022-12-04T11:26:10.963Z,22.35
2022-12-04T11:28:42.171Z,22.88
2022-12-04T11:31:15.728Z,23.15
2022-12-04T11:33:54.696Z,22.58
2022-12-04T11:36:30.244Z,23.38
2022-12-04T11:39:11.286Z,22.60
2022-12-04T11:41:38.533Z,25.10
2022-12-04T11:44:24.876Z,23.70
2022-12-04T11:46:53.956Z,23.55
2022-12-04T11:49:22.749Z,22.42
2022-12-04T11:52:13.743Z,23.27
2022-12-04T11:54:56.457Z,22.83
2022-12-04T11:57:39.787Z,23.77
2022-12-04T12:00:18.347Z,24.67
2022-12-04T12:02:44.826Z,23.80
2022-12-04T12:05:17.443Z,24.50
2022-12-04T12:08:03.346Z,25.90
2022-12-04T12:10:47.272Z,23.20
2022-12-04T12:16:11.958Z,22.77
2022-12-04T12:19:09.721Z,24.98
2022-12-04T12:21:43.252Z,22.17
2022-12-04T12:24:29.325Z,24.60
2022-12-04T12:27:17.704Z,25.42
2022-12-04T12:30:17.873Z,23.77
2022-12-04T12:33:02.789Z,25.52
2022-12-04T12:35:46.912Z,22.58
2022-12-04T12:38:19.600Z,23.70
2022-12-04T12:40:53.158Z,24.93
2022-12-04T12:46:25.844Z,23.88
2022-12-04T12:49:17.543Z,24.13
2022-12-04T12:51:54.553Z,24.88
2022-12-04T12:54:39.942Z,27.05
2022-12-04T12:57:17.596Z,25.55
2022-12-04T13:00:00.941Z,27.15
2022-12-04T13:02:37.234Z,26.48
2022-12-04T13:05:10.847Z,25.05
2022-12-04T13:10:32.823Z,24.90
2022-12-04T13:13:19.096Z,24.50
2022-12-04T13:15:56.336Z,23.30
2022-12-04T13:18:48.273Z,24.38
2022-12-04T13:21:28.216Z,25.23
2022-12-04T13:24:17.709Z,26.52
2022-12-04T13:26:53.852Z,26.45
2022-12-04T13:29:41.950Z,26.55
2022-12-04T13:32:28.810Z,26.85
2022-12-04T13:35:11.681Z,25.70
2022-12-04T13:37:50.656Z,26.85
2022-12-04T13:40:31.321Z,26.13
2022-12-04T13:43:18.740Z,28.15
2022-12-04T13:45:47.459Z,26.33
2022-12-04T13:48:13.975Z,25.05
2022-12-04T13:50:40.993Z,27.23
2022-12-04T13:53:35.106Z,27.13
2022-12-04T13:58:36.188Z,26.70
2022-12-04T14:01:30.881Z,26.60
2022-12-04T14:03:59.656Z,28.23
2022-12-04T14:06:33.955Z,28.98
2022-12-04T14:09:04.747Z,27.58
2022-12-04T14:11:44.082Z,28.33
2022-12-04T14:14:47.868Z,27.25
2022-12-04T14:17:25.911Z,28.30
2022-12-04T14:19:55.251Z,26.65
2022-12-04T14:22:35.476Z,29.38
2022-12-04T14:25:07.411Z,25.83
2022-12-04T14:27:47.075Z,28.23
2022-12-04T14:30:28.637Z,26.40
2022-12-04T14:33:12.236Z,27.17
2022-12-04T14:35:49.724Z,26.65
2022-12-04T14:38:20.600Z,26.10
2022-12-04T14:40:51.917Z,27.10
2022-12-04T14:43:21.628Z,28.67
2022-12-04T14:45:58.223Z,25.92
2022-12-04T14:48:30.715Z,27.00
2022-12-04T14:51:29.581Z,27.13
2022-12-04T14:54:39.764Z,27.90
2022-12-04T14:57:09.293Z,28.23
2022-12-04T14:59:45.508Z,29.20
2022-12-04T15:02:17.327Z,28.67
2022-12-04T15:04:46.516Z,26.63
2022-12-04T15:07:26.187Z,27.88
2022-12-04T15:10:13.696Z,25.17
2022-12-04T15:12:54.223Z,28.95
2022-12-04T15:15:26.385Z,26.60
2022-12-04T15:18:01.975Z,24.58
2022-12-04T15:20:38.669Z,24.33
2022-12-04T15:23:05.814Z,24.23
2022-12-04T15:25:43.263Z,25.15
2022-12-04T15:28:31.299Z,25.98
2022-12-04T15:31:00.603Z,26.75
2022-12-04T15:33:35.271Z,27.42
2022-12-04T15:36:09.491Z,25.60
2022-12-04T15:38:36.741Z,25.35
2022-12-04T15:41:03.268Z,23.70
2022-12-04T15:43:40.814Z,24.42
2022-12-04T15:46:31.238Z,25.00
2022-12-04T15:49:18.660Z,25.05
2022-12-04T15:51:47.145Z,24.63
2022-12-04T15:54:25.992Z,24.35
2022-12-04T15:57:03.505Z,25.10
2022-12-04T15:59:30.926Z,26.38
2022-12-04T16:02:05.526Z,25.02
2022-12-04T16:04:35.645Z,25.23
2022-12-04T16:07:02.527Z,24.40
2022-12-04T16:09:29.018Z,28.10
2022-12-04T16:12:01.634Z,27.23
2022-12-04T16:14:28.384Z,26.70
2022-12-04T16:17:00.056Z,24.50
2022-12-04T16:19:36.300Z,25.90
2022-12-04T16:22:09.384Z,24.63
2022-12-04T16:24:35.780Z,26.10
2022-12-04T16:27:04.589Z,25.45
2022-12-04T16:29:31.480Z,25.75
2022-12-04T16:32:03.052Z,24.17
2022-12-04T16:34:30.562Z,25.48
2022-12-04T16:36:57.153Z,25.83
2022-12-04T16:39:23.650Z,26.75
2022-12-04T16:41:50.116Z,25.17
2022-12-04T16:44:17.227Z,24.83
2022-12-04T16:46:44.585Z,26.73
2022-12-04T16:49:12.694Z,24.75
2022-12-04T16:51:45.821Z,24.05
2022-12-04T16:54:13.467Z,25.23
2022-12-04T16:56:39.998Z,24.83
2022-12-04T16:59:11.558Z,23.58
2022-12-04T17:01:42.777Z,23.52
2022-12-04T17:04:09.515Z,24.80
2022-12-04T17:06:36.263Z,22.45
2022-12-04T17:09:02.862Z,23.35
2022-12-04T17:11:29.364Z,21.77
2022-12-04T17:13:55.954Z,24.38
2022-12-04T17:16:24.597Z,23.10
2022-12-04T17:18:51.920Z,23.25
2022-12-04T17:21:18.424Z,21.70
2022-12-04T17:23:45.000Z,24.52
2022-12-04T17:26:14.434Z,23.92
2022-12-04T17:28:41.375Z,22.67
2022-12-04T17:31:27.300Z,22.80
2022-12-04T17:33:53.990Z,23.55
2022-12-04T17:36:23.487Z,23.40
2022-12-04T17:38:54.569Z,22.25
2022-12-04T17:41:21.165Z,23.92
2022-12-04T17:43:47.761Z,22.33
2022-12-04T17:46:18.862Z,23.30
2022-12-04T17:48:45.455Z,22.95
2022-12-04T17:51:15.141Z,21.50
2022-12-04T17:53:42.491Z,24.00
2022-12-04T17:56:12.485Z,21.40
2022-12-04T17:58:38.902Z,21.67
2022-12-04T18:01:11.100Z,22.52
2022-12-04T18:03:38.411Z,24.40
2022-12-04T18:06:17.357Z,22.45
2022-12-04T18:08:49.846Z,24.27
2022-12-04T18:11:21.699Z,18.63
2022-12-04T18:13:49.255Z,24.60
2022-12-04T18:16:15.853Z,23.50
2022-12-04T18:18:46.640Z,21.90
2022-12-04T18:21:14.673Z,23.42
2022-12-04T18:23:45.680Z,22.65
2022-12-04T18:26:15.825Z,23.20
2022-12-04T18:28:42.474Z,22.42
2022-12-04T18:31:09.835Z,23.60
2022-12-04T18:33:38.405Z,22.63
2022-12-04T18:36:05.686Z,22.58
2022-12-04T18:38:32.549Z,22.17
2022-12-04T18:41:06.686Z,22.25
2022-12-04T18:43:34.575Z,22.63
2022-12-04T18:46:07.267Z,22.50
2022-12-04T18:48:35.137Z,22.23
2022-12-04T18:51:01.687Z,22.88
2022-12-04T18:53:28.199Z,21.38
2022-12-04T18:55:55.389Z,21.98
2022-12-04T18:58:22.914Z,22.95
2022-12-04T19:00:51.730Z,21.55
2022-12-04T19:03:18.474Z,23.33
2022-12-04T19:05:49.112Z,23.20
2022-12-04T19:08:15.912Z,21.73
2022-12-04T19:10:42.489Z,21.60
2022-12-04T19:13:08.980Z,21.88
2022-12-04T19:15:42.003Z,20.95
2022-12-04T19:18:08.583Z,21.40
2022-12-04T19:20:35.100Z,21.40
2022-12-04T19:23:01.555Z,20.55
2022-12-04T19:25:28.065Z,21.60
2022-12-04T19:27:55.526Z,20.55
2022-12-04T19:30:22.051Z,20.98
2022-12-04T19:32:49.361Z,19.95
2022-12-04T19:35:15.885Z,20.10
2022-12-04T19:37:44.781Z,21.02
2022-12-04T19:40:14.865Z,20.40
2022-12-04T19:42:41.385Z,22.35
2022-12-04T19:45:08.208Z,20.42
2022-12-04T19:47:34.704Z,21.25
2022-12-04T19:50:01.115Z,20.73
2022-12-04T19:52:27.665Z,21.73
2022-12-04T19:54:54.130Z,20.60
2022-12-04T19:57:20.624Z,19.70
2022-12-04T19:59:47.115Z,20.13
2022-12-04T20:02:14.129Z,20.17
2022-12-04T20:04:41.022Z,20.15
2022-12-04T20:07:07.454Z,20.23
2022-12-04T20:09:34.345Z,20.20
2022-12-04T20:12:00.973Z,21.20
2022-12-04T20:14:28.098Z,20.13
2022-12-04T20:16:54.650Z,20.13
2022-12-04T20:19:21.165Z,19.27
2022-12-04T20:21:48.190Z,19.15
2022-12-04T20:24:16.595Z,20.27
2022-12-04T20:26:44.844Z,20.15
2022-12-04T20:29:13.984Z,19.85
2022-12-04T20:31:44.261Z,19.58
2022-12-04T20:34:14.355Z,20.35
2022-12-04T20:36:43.904Z,19.13
2022-12-04T20:39:11.833Z,20.45
2022-12-04T20:41:38.811Z,19.40
2022-12-04T20:44:07.033Z,18.73
2022-12-04T20:46:35.888Z,19.20
2022-12-04T20:49:06.358Z,20.17
2022-12-04T20:51:35.400Z,19.27
2022-12-04T20:54:02.357Z,19.20
2022-12-04T20:56:34.339Z,19.08
2022-12-04T20:59:06.519Z,18.17
2022-12-04T21:01:33.978Z,17.65
2022-12-04T21:04:01.864Z,16.83
2022-12-04T21:06:34.820Z,17.63
2022-12-04T21:09:06.043Z,17.40
2022-12-04T21:11:39.234Z,17.50
2022-12-04T21:14:32.358Z,16.58
2022-12-04T21:16:58.987Z,16.38
2022-12-04T21:19:26.097Z,18.75
2022-12-04T21:21:53.326Z,17.65
2022-12-04T21:24:22.171Z,18.17
2022-12-04T21:26:48.752Z,17.42
2022-12-04T21:29:15.633Z,18.00
2022-12-04T21:31:42.458Z,18.27
2022-12-04T21:34:11.629Z,17.90
2022-12-04T21:36:38.202Z,17.15
2022-12-04T21:39:05.032Z,18.08
2022-12-04T21:41:50.182Z,16.25
2022-12-04T21:44:18.356Z,15.80
2022-12-04T21:46:45.441Z,15.00
2022-12-04T21:49:13.602Z,17.02
2022-12-04T21:51:56.722Z,17.25
2022-12-04T21:54:23.564Z,16.88
2022-12-04T21:56:50.755Z,16.98
2022-12-04T21:59:17.283Z,16.35
2022-12-04T22:01:44.259Z,17.73
2022-12-04T22:04:10.721Z,19.10
2022-12-04T22:06:38.021Z,17.17
2022-12-04T22:09:07.845Z,17.55
2022-12-04T22:11:34.447Z,16.83
2022-12-04T22:14:00.856Z,16.75
2022-12-04T22:16:30.523Z,16.98
2022-12-04T22:18:58.704Z,16.73
2022-12-04T22:21:26.265Z,17.65
2022-12-04T22:24:01.432Z,17.63
2022-12-04T22:26:29.614Z,16.98
2022-12-04T22:28:56.581Z,17.20
2022-12-04T22:31:25.852Z,16.88
2022-12-04T22:33:54.424Z,17.17
2022-12-04T22:36:23.947Z,16.67
2022-12-04T22:39:09.929Z,17.70
2022-12-04T22:41:37.346Z,16.08
2022-12-04T22:44:03.958Z,17.77
2022-12-04T22:46:30.507Z,17.20
2022-12-04T22:48:58.639Z,16.13
2022-12-04T22:51:25.296Z,17.30
2022-12-04T22:53:54.126Z,17.00
2022-12-04T22:56:29.456Z,15.68
2022-12-04T22:58:58.243Z,17.00
2022-12-04T23:01:28.300Z,16.42
2022-12-04T23:03:55.457Z,17.63
2022-12-04T23:06:24.061Z,16.17
2022-12-04T23:08:54.764Z,15.50
2022-12-04T23:11:22.778Z,16.42
2022-12-04T23:13:51.225Z,15.25
2022-12-04T23:16:20.493Z,16.52
2022-12-04T23:18:47.408Z,15.75
2022-12-04T23:21:15.149Z,16.00
2022-12-04T23:23:44.274Z,16.45
2022-12-04T23:26:15.328Z,15.70
2022-12-04T23:28:42.424Z,16.83
2022-12-04T23:31:10.896Z,16.80
2022-12-04T23:33:38.544Z,16.63
2022-12-04T23:36:07.676Z,16.25
2022-12-04T23:38:36.307Z,16.80
2022-12-04T23:41:14.564Z,15.68
2022-12-04T23:43:41.652Z,15.18
2022-12-04T23:46:11.612Z,15.77
2022-12-04T23:48:40.149Z,16.95
2022-12-04T23:51:08.486Z,16.10
2022-12-04T23:53:35.428Z,15.15
2022-12-04T23:56:09.863Z,16.20
2022-12-04T23:58:37.209Z,15.35
